Time;durP1;ratioP1;P1;durP2;ratioP2;P2;SDS_P1;SDS_P2;PMS_P1;PMS_P2;Temp;Humidity;BMP_temperature;BMP_pressure;BME280_temperature;BME280_humidity;BME280_pressure;Samples;Min_cycle;Max_cycle;Signal;HPM_P1;HPM_P2
2022/07/16 00:02:24;;;;;;;30.88;28.63;;;;;;;20.03;100.00;100824.41;5039498;28;20051;-79
2022/07/16 00:04:52;;;;;;;32.65;30.52;;;;;;;19.91;100.00;100821.16;5041574;28;20060;-82
2022/07/16 00:07:19;;;;;;;37.42;34.45;;;;;;;19.85;100.00;100822.22;5043573;28;20057;-80
2022/07/16 00:09:47;;;;;;;30.30;28.10;;;;;;;19.66;100.00;100829.94;5045226;28;20374;-80
2022/07/16 00:12:14;;;;;;;31.40;28.77;;;;;;;19.61;100.00;100843.38;5041501;28;20119;-79
2022/07/16 00:14:40;;;;;;;32.08;29.98;;;;;;;19.19;100.00;100828.06;5040599;28;20059;-81
2022/07/16 00:17:07;;;;;;;31.88;29.77;;;;;;;19.02;100.00;100828.22;5038894;28;20041;-81
2022/07/16 00:19:33;;;;;;;35.75;33.38;;;;;;;19.36;100.00;100825.19;5034995;28;20473;-81
2022/07/16 00:22:02;;;;;;;31.92;29.58;;;;;;;19.19;100.00;100834.25;5036811;28;20053;-81
2022/07/16 00:24:30;;;;;;;34.08;31.77;;;;;;;19.21;100.00;100836.69;5049441;28;20045;-82
2022/07/16 00:26:57;;;;;;;32.63;30.52;;;;;;;19.39;100.00;100835.44;5044930;28;20052;-79
2022/07/16 00:29:23;;;;;;;36.83;34.13;;;;;;;19.29;100.00;100838.09;5045275;28;20049;-80
2022/07/16 00:31:53;;;;;;;33.88;31.60;;;;;;;19.31;100.00;100838.66;5040399;28;20053;-81
2022/07/16 00:34:21;;;;;;;32.90;30.65;;;;;;;19.16;100.00;100847.44;5042007;28;20161;-78
2022/07/16 00:36:49;;;;;;;33.60;31.25;;;;;;;19.16;100.00;100844.75;5049480;28;20044;-80
2022/07/16 00:39:18;;;;;;;32.20;29.88;;;;;;;19.11;100.00;100840.13;5052378;28;20049;-81
2022/07/16 00:41:48;;;;;;;35.50;33.08;;;;;;;18.72;100.00;100842.25;5037739;28;20046;-79
2022/07/16 00:44:18;;;;;;;30.23;28.02;;;;;;;18.76;100.00;100838.00;5041826;28;20052;-79
2022/07/16 00:46:49;;;;;;;38.50;35.70;;;;;;;18.26;100.00;100836.47;5044942;28;20049;-80
2022/07/16 00:49:16;;;;;;;33.17;31.00;;;;;;;18.38;100.00;100849.75;5041944;28;20441;-81
2022/07/16 00:51:46;;;;;;;34.25;31.95;;;;;;;18.77;100.00;100848.50;5032779;28;20049;-80
2022/07/16 00:54:13;;;;;;;31.10;28.80;;;;;;;18.72;100.00;100843.03;5045762;28;20084;-80
2022/07/16 00:56:42;;;;;;;33.08;30.67;;;;;;;18.88;100.00;100852.09;5041583;28;20049;-81
2022/07/16 00:59:09;;;;;;;32.75;30.45;;;;;;;18.73;100.00;100857.38;5032914;28;20060;-81
2022/07/16 01:01:36;;;;;;;35.33;32.80;;;;;;;18.70;100.00;100861.34;5038403;28;20057;-81
2022/07/16 01:04:04;;;;;;;35.83;33.67;;;;;;;18.88;100.00;100859.34;5032846;28;20057;-80
2022/07/16 01:06:31;;;;;;;33.97;31.60;;;;;;;18.47;100.00;100856.28;5040957;28;20490;-79
2022/07/16 01:08:59;;;;;;;32.47;29.98;;;;;;;18.11;100.00;100860.50;5048784;28;20045;-79
2022/07/16 01:11:27;;;;;;;33.15;30.60;;;;;;;17.93;100.00;100858.94;5036960;28;20072;-80
2022/07/16 01:13:56;;;;;;;33.65;31.15;;;;;;;17.80;100.00;100871.69;5043391;28;20057;-79
2022/07/16 01:16:23;;;;;;;38.72;35.83;;;;;;;18.05;100.00;100863.13;5036893;28;20048;-81
2022/07/16 01:18:50;;;;;;;50.22;46.75;;;;;;;17.87;100.00;100868.00;5036243;28;20046;-80
2022/07/16 01:21:18;;;;;;;56.92;53.53;;;;;;;17.99;100.00;100866.81;5046427;28;20052;-80
2022/07/16 01:23:49;;;;;;;58.35;54.83;;;;;;;18.06;100.00;100866.59;5043448;28;20091;-80
2022/07/16 01:26:16;;;;;;;32.58;29.80;;;;;;;18.60;100.00;100872.00;5048186;28;20052;-81
2022/07/16 01:28:43;;;;;;;33.95;31.30;;;;;;;18.40;100.00;100869.13;5045665;28;20060;-79
2022/07/16 01:31:12;;;;;;;29.48;27.08;;;;;;;18.30;100.00;100878.69;5045885;28;20111;-80
2022/07/16 01:33:42;;;;;;;34.17;31.83;;;;;;;18.52;100.00;100878.66;5042484;28;20038;-81
2022/07/16 01:36:12;;;;;;;35.30;32.90;;;;;;;18.59;100.00;100873.06;5048116;28;20037;-81
2022/07/16 01:38:40;;;;;;;32.20;29.77;;;;;;;18.35;100.00;100879.84;5053085;28;20052;-81
2022/07/16 01:41:09;;;;;;;33.65;30.98;;;;;;;18.30;100.00;100883.25;5049222;28;20124;-81
2022/07/16 01:43:35;;;;;;;33.80;31.50;;;;;;;18.27;100.00;100881.09;5043831;28;20473;-80
2022/07/16 01:46:03;;;;;;;32.75;30.50;;;;;;;18.26;100.00;100880.28;5046345;28;20111;-80
2022/07/16 01:48:31;;;;;;;33.53;31.20;;;;;;;18.17;100.00;100881.00;5042776;28;20045;-82
2022/07/16 01:50:58;;;;;;;31.20;29.10;;;;;;;18.26;100.00;100877.59;5036064;28;20041;-80
2022/07/16 01:53:28;;;;;;;32.10;29.60;;;;;;;18.20;100.00;100878.59;5042510;28;20059;-80
2022/07/16 01:55:55;;;;;;;29.90;27.70;;;;;;;17.77;100.00;100882.09;5048996;28;20486;-82
2022/07/16 01:58:24;;;;;;;29.73;27.70;;;;;;;17.97;100.00;100889.63;5046967;28;20049;-80
2022/07/16 02:00:51;;;;;;;30.65;28.55;;;;;;;18.02;100.00;100881.63;5149632;22;20061;-79
2022/07/16 02:03:19;;;;;;;30.23;27.83;;;;;;;18.15;100.00;100883.91;5019417;28;20448;-79
2022/07/16 02:05:46;;;;;;;32.95;30.48;;;;;;;18.05;100.00;100878.44;5015949;28;20057;-78
2022/07/16 02:08:13;;;;;;;29.75;27.25;;;;;;;17.78;100.00;100889.13;5016542;28;20053;-80
2022/07/16 02:10:40;;;;;;;30.10;27.60;;;;;;;17.83;100.00;100890.00;5020320;28;20056;-78
2022/07/16 02:13:07;;;;;;;28.38;26.17;;;;;;;17.67;100.00;100893.53;5018996;28;20046;-81
2022/07/16 02:15:35;;;;;;;30.85;28.20;;;;;;;17.99;100.00;100882.13;5018492;28;20117;-80
2022/07/16 02:18:03;;;;;;;33.08;30.67;;;;;;;17.87;100.00;100887.63;5015212;28;20104;-79
2022/07/16 02:20:30;;;;;;;33.63;31.13;;;;;;;17.84;100.00;100896.19;5022644;28;20064;-80
2022/07/16 02:22:57;;;;;;;33.25;31.00;;;;;;;17.66;100.00;100899.94;5025553;28;20119;-78
2022/07/16 02:25:25;;;;;;;30.80;28.55;;;;;;;17.83;100.00;100897.25;5023421;28;20042;-78
2022/07/16 02:28:09;;;;;;;35.47;32.03;;;;;;;17.95;100.00;100897.94;5021700;28;20065;-78
2022/07/16 02:30:40;;;;;;;33.50;31.33;;;;;;;16.98;100.00;100906.47;5015958;28;20058;-80
2022/07/16 02:33:07;;;;;;;37.10;34.60;;;;;;;17.71;100.00;100899.22;5017851;28;20437;-79
2022/07/16 02:35:35;;;;;;;33.08;30.67;;;;;;;17.22;100.00;100907.94;5015406;28;20054;-80
2022/07/16 02:38:02;;;;;;;38.33;35.63;;;;;;;17.15;100.00;100904.59;5017043;28;20398;-80
2022/07/16 02:40:32;;;;;;;36.28;33.53;;;;;;;17.34;100.00;100907.84;5018395;28;20049;-80
2022/07/16 02:42:59;;;;;;;34.72;32.20;;;;;;;17.23;100.00;100901.50;5014158;28;20445;-82
2022/07/16 02:45:28;;;;;;;31.40;29.02;;;;;;;17.79;100.00;100907.69;5019398;28;20053;-80
2022/07/16 02:47:59;;;;;;;33.20;30.67;;;;;;;17.71;100.00;100912.66;5025879;28;20387;-78
2022/07/16 02:50:27;;;;;;;31.63;29.37;;;;;;;17.50;100.00;100912.38;5019684;28;20041;-80
2022/07/16 02:52:54;;;;;;;31.50;29.20;;;;;;;17.57;100.00;100909.50;5020408;28;20307;-79
2022/07/16 02:55:22;;;;;;;29.92;27.75;;;;;;;17.60;100.00;100920.56;5014750;28;20046;-79
2022/07/16 02:57:49;;;;;;;30.30;28.10;;;;;;;17.55;100.00;100915.13;5016255;28;20053;-79
2022/07/16 03:00:18;;;;;;;29.50;27.20;;;;;;;16.86;100.00;100922.66;5003069;28;20517;-80
2022/07/16 03:02:45;;;;;;;29.92;27.73;;;;;;;17.54;100.00;100924.22;5015783;28;20089;-80
2022/07/16 03:05:14;;;;;;;30.27;27.88;;;;;;;17.34;100.00;100919.38;5015337;28;20124;-81
2022/07/16 03:07:42;;;;;;;31.58;28.92;;;;;;;17.73;100.00;100916.72;5017646;28;20046;-78
2022/07/16 03:10:10;;;;;;;29.27;27.05;;;;;;;17.66;100.00;100923.31;5021619;28;20045;-80
2022/07/16 03:12:37;;;;;;;28.05;25.55;;;;;;;17.61;100.00;100929.44;5018430;28;20481;-78
2022/07/16 03:15:05;;;;;;;28.67;26.67;;;;;;;17.50;100.00;100928.47;5016260;28;20050;-79
2022/07/16 03:17:32;;;;;;;27.42;25.52;;;;;;;17.87;100.00;100924.44;5018912;28;20045;-78
2022/07/16 03:19:59;;;;;;;29.73;27.63;;;;;;;17.84;100.00;100931.13;5018238;28;20112;-78
2022/07/16 03:22:27;;;;;;;27.63;25.73;;;;;;;17.84;100.00;100926.53;5015913;28;20492;-78
2022/07/16 03:24:54;;;;;;;26.50;24.60;;;;;;;18.00;100.00;100929.41;5016214;28;20157;-79
2022/07/16 03:27:21;;;;;;;28.55;26.13;;;;;;;17.92;100.00;100933.38;5012745;28;20048;-78
2022/07/16 03:29:48;;;;;;;28.42;26.25;;;;;;;18.12;100.00;100926.63;5015247;28;20050;-80
2022/07/16 03:32:14;;;;;;;29.13;26.63;;;;;;;18.11;100.00;100925.81;5012548;28;20505;-78
2022/07/16 03:34:41;;;;;;;27.30;25.08;;;;;;;17.91;100.00;100931.72;5014953;28;20058;-80
2022/07/16 03:37:08;;;;;;;27.85;25.70;;;;;;;18.24;100.00;100920.03;5012597;28;20057;-78
2022/07/16 03:39:37;;;;;;;27.35;25.10;;;;;;;18.54;100.00;100927.63;5012083;28;20111;-79
2022/07/16 03:42:04;;;;;;;27.10;24.95;;;;;;;18.43;100.00;100935.84;5014223;28;20399;-81
2022/07/16 03:44:30;;;;;;;27.88;25.67;;;;;;;18.80;100.00;100930.59;5021560;28;20061;-80
2022/07/16 03:46:57;;;;;;;26.65;24.50;;;;;;;18.79;100.00;100934.38;5021398;28;20053;-78
2022/07/16 03:49:24;;;;;;;27.70;25.25;;;;;;;19.06;100.00;100937.00;5024085;28;20454;-81
2022/07/16 03:51:51;;;;;;;29.35;27.08;;;;;;;19.15;100.00;100930.09;5019366;28;20074;-79
2022/07/16 03:54:17;;;;;;;28.25;26.08;;;;;;;19.37;100.00;100940.75;5015383;28;20069;-81
2022/07/16 03:56:46;;;;;;;27.13;25.13;;;;;;;19.39;100.00;100943.97;5019326;28;20049;-80
2022/07/16 03:59:13;;;;;;;26.70;24.35;;;;;;;19.48;100.00;100952.38;5010609;28;20042;-80
2022/07/16 04:01:40;;;;;;;26.08;24.10;;;;;;;19.73;100.00;100953.63;5014921;28;20145;-81
2022/07/16 04:04:07;;;;;;;27.38;25.17;;;;;;;19.87;100.00;100957.50;5015096;28;20209;-80
2022/07/16 04:06:34;;;;;;;26.13;24.23;;;;;;;19.94;100.00;100955.38;5010424;28;20053;-78
2022/07/16 04:09:02;;;;;;;25.85;24.05;;;;;;;19.97;100.00;100960.25;5017532;28;20469;-78
2022/07/16 04:11:29;;;;;;;25.85;23.70;;;;;;;20.25;100.00;100959.00;5012697;28;20411;-78
2022/07/16 04:13:57;;;;;;;29.90;23.95;;;;;;;20.06;100.00;100958.69;5018584;28;20046;-79
2022/07/16 04:16:24;;;;;;;25.90;23.50;;;;;;;20.30;100.00;100953.66;5019377;28;20057;-78
2022/07/16 04:18:50;;;;;;;25.83;23.58;;;;;;;20.50;100.00;100960.16;5014572;28;20038;-81
2022/07/16 04:21:17;;;;;;;26.45;24.38;;;;;;;20.50;100.00;100960.97;5015926;28;20050;-78
2022/07/16 04:23:44;;;;;;;25.92;23.92;;;;;;;20.70;100.00;100956.72;5014825;28;20053;-80
2022/07/16 04:26:11;;;;;;;25.88;23.73;;;;;;;20.66;100.00;100967.22;5012223;28;20057;-80
2022/07/16 04:28:37;;;;;;;25.58;23.45;;;;;;;20.69;100.00;100955.91;5016772;28;20057;-80
2022/07/16 04:31:06;;;;;;;25.60;23.60;;;;;;;20.95;100.00;100961.34;5010258;28;20058;-80
2022/07/16 04:33:32;;;;;;;25.98;23.88;;;;;;;21.78;100.00;100957.50;5010958;28;20058;-78
2022/07/16 04:35:59;;;;;;;27.77;25.25;;;;;;;21.04;100.00;100957.84;5010133;28;20406;-80
2022/07/16 04:38:26;;;;;;;26.27;24.08;;;;;;;21.16;100.00;100957.56;5015667;28;20041;-78
2022/07/16 04:40:53;;;;;;;25.83;23.38;;;;;;;21.34;100.00;100960.81;5014492;28;20045;-78
2022/07/16 04:43:20;;;;;;;25.00;23.20;;;;;;;21.42;100.00;100947.59;5012792;28;20052;-78
2022/07/16 04:45:46;;;;;;;24.73;22.92;;;;;;;21.41;100.00;100947.84;5010847;28;20046;-78
2022/07/16 04:48:14;;;;;;;24.38;22.58;;;;;;;21.54;100.00;100941.06;5019623;28;20061;-79
2022/07/16 04:50:41;;;;;;;24.58;22.88;;;;;;;21.63;100.00;100944.81;5012795;28;20444;-79
2022/07/16 04:53:08;;;;;;;24.88;22.92;;;;;;;21.73;100.00;100958.31;5018709;28;20133;-80
2022/07/16 04:55:35;;;;;;;25.60;23.65;;;;;;;22.01;100.00;100953.38;5023330;28;20053;-81
2022/07/16 04:58:02;;;;;;;24.75;22.85;;;;;;;22.18;100.00;100951.16;5017801;28;20433;-81
2022/07/16 05:00:28;;;;;;;25.85;23.85;;;;;;;22.61;100.00;100952.28;5017875;28;20054;-79
2022/07/16 05:02:58;;;;;;;24.80;22.90;;;;;;;22.79;100.00;100944.56;5025376;28;20049;-78
2022/07/16 05:05:29;;;;;;;26.08;23.95;;;;;;;23.17;100.00;100966.50;5013508;28;20053;-81
2022/07/16 05:07:56;;;;;;;25.73;23.50;;;;;;;23.43;100.00;100962.47;5017108;28;20113;-79
2022/07/16 05:10:24;;;;;;;24.05;21.98;;;;;;;24.39;100.00;100965.19;5024396;28;20045;-79
2022/07/16 05:12:51;;;;;;;24.60;22.45;;;;;;;24.32;100.00;100970.16;5016202;28;20554;-81
2022/07/16 05:15:18;;;;;;;25.65;23.83;;;;;;;24.74;100.00;100962.25;5014467;28;20046;-80
2022/07/16 05:17:46;;;;;;;25.38;23.45;;;;;;;24.75;100.00;100974.72;5016732;28;20049;-80
2022/07/16 05:20:13;;;;;;;24.98;23.08;;;;;;;24.77;100.00;100967.09;5018052;28;20041;-79
2022/07/16 05:22:42;;;;;;;24.02;22.33;;;;;;;25.17;100.00;100964.84;5019907;28;20505;-84
2022/07/16 05:25:10;;;;;;;24.60;22.77;;;;;;;25.38;100.00;100971.56;5019635;28;20058;-79
2022/07/16 05:27:37;;;;;;;25.33;23.42;;;;;;;25.31;100.00;100965.72;5016265;28;20050;-79
2022/07/16 05:30:05;;;;;;;26.95;24.85;;;;;;;25.22;100.00;100970.22;5017526;28;20119;-81
2022/07/16 05:32:32;;;;;;;27.92;25.60;;;;;;;25.65;100.00;100983.59;5015590;28;20375;-87
2022/07/16 05:35:23;;;;;;;26.10;23.73;;;;;;;25.48;100.00;100976.81;5018186;28;20054;-86
2022/07/16 05:37:52;;;;;;;25.00;23.00;;;;;;;25.43;100.00;100984.25;5013855;28;20069;-85
2022/07/16 05:40:21;;;;;;;26.38;24.23;;;;;;;25.70;100.00;100994.38;5014048;28;20116;-84
2022/07/16 05:42:51;;;;;;;26.48;24.05;;;;;;;25.99;100.00;100983.22;5007643;28;20112;-87
2022/07/16 05:45:22;;;;;;;27.52;24.55;;;;;;;25.88;100.00;100995.44;5005185;28;20054;-86
2022/07/16 05:47:51;;;;;;;26.63;24.83;;;;;;;26.09;100.00;100988.47;5017817;28;20457;-86
2022/07/16 05:50:19;;;;;;;26.42;24.42;;;;;;;25.62;100.00;100995.06;5013918;28;20453;-87
2022/07/16 05:52:47;;;;;;;26.90;24.65;;;;;;;25.65;100.00;100997.19;5016432;28;20485;-86
2022/07/16 05:55:37;;;;;;;26.92;24.70;;;;;;;25.69;100.00;100996.28;5014627;28;20057;-85
2022/07/16 05:58:08;;;;;;;25.60;23.27;;;;;;;25.98;100.00;100987.06;5016507;28;20120;-85
2022/07/16 06:00:38;;;;;;;25.80;23.92;;;;;;;26.25;100.00;101000.63;5016916;28;20116;-85
2022/07/16 06:03:17;;;;;;;28.10;25.48;;;;;;;26.47;100.00;100999.88;5016048;28;20075;-84
2022/07/16 06:05:49;;;;;;;26.73;24.45;;;;;;;26.45;100.00;100996.69;5014111;28;20402;-85
2022/07/16 06:08:16;;;;;;;26.13;24.33;;;;;;;26.65;100.00;101003.59;5015318;28;20049;-84
2022/07/16 06:10:48;;;;;;;28.13;25.77;;;;;;;26.72;100.00;101005.94;5015674;28;20042;-85
2022/07/16 06:13:22;;;;;;;31.87;27.40;;;;;;;26.75;100.00;101008.03;5015292;28;20072;-87
2022/07/16 06:15:52;;;;;;;28.38;26.08;;;;;;;26.67;100.00;101012.28;5011190;28;20337;-85
2022/07/16 06:18:26;;;;;;;30.67;27.75;;;;;;;26.78;100.00;101010.16;5015734;28;20053;-85
2022/07/16 06:20:56;;;;;;;26.92;24.13;;;;;;;27.08;100.00;101005.06;5015408;28;20383;-88
2022/07/16 06:23:24;;;;;;;28.05;25.85;;;;;;;26.97;100.00;101006.44;5016209;28;20053;-89
2022/07/16 06:26:00;;;;;;;27.35;25.17;;;;;;;26.79;100.00;101008.22;5025827;28;20070;-86
2022/07/16 06:28:27;;;;;;;28.25;26.08;;;;;;;26.78;100.00;100995.69;5014103;28;20104;-88
2022/07/16 06:30:55;;;;;;;29.80;27.25;;;;;;;26.92;100.00;100994.53;5015870;28;20042;-89
2022/07/16 06:33:28;;;;;;;30.63;28.42;;;;;;;27.46;100.00;100980.94;5022085;28;20053;-85
2022/07/16 06:35:57;;;;;;;27.67;25.70;;;;;;;27.37;100.00;100988.28;5007936;28;20053;-86
2022/07/16 06:38:33;;;;;;;29.00;26.58;;;;;;;27.76;100.00;100986.69;5012255;28;20115;-85
2022/07/16 06:41:03;;;;;;;28.42;26.42;;;;;;;27.56;100.00;101001.69;5013062;28;20056;-84
2022/07/16 06:43:36;;;;;;;28.27;26.17;;;;;;;27.70;97.50;100996.94;5015023;28;20402;-85
2022/07/16 06:46:09;;;;;;;29.85;27.40;;;;;;;27.73;100.00;101001.78;5014620;28;20053;-86
2022/07/16 06:48:37;;;;;;;27.55;25.45;;;;;;;27.66;98.88;101006.06;5024274;28;20057;-86
2022/07/16 06:51:10;;;;;;;27.98;25.67;;;;;;;27.88;99.73;101006.03;5014452;28;20422;-89
2022/07/16 06:53:38;;;;;;;29.13;26.17;;;;;;;28.21;97.27;101011.13;5009315;28;20049;-86
2022/07/16 06:56:18;;;;;;;28.88;26.33;;;;;;;28.25;97.90;101009.34;5009238;28;20572;-85
2022/07/16 06:58:51;;;;;;;28.50;26.00;;;;;;;28.15;91.53;101020.59;5016076;28;20487;-86
2022/07/16 07:01:18;;;;;;;26.50;24.50;;;;;;;28.15;92.13;101007.72;5009197;28;20045;-85
2022/07/16 07:03:44;;;;;;;29.42;27.13;;;;;;;28.17;92.84;101005.50;5014447;28;20049;-89
2022/07/16 07:06:13;;;;;;;29.15;26.73;;;;;;;28.40;94.99;101014.34;5014912;28;20056;-86
2022/07/16 07:08:40;;;;;;;28.90;26.65;;;;;;;28.30;92.99;101010.00;5023220;28;20452;-84
2022/07/16 07:11:07;;;;;;;28.40;26.20;;;;;;;28.63;94.16;101009.59;5017388;28;20057;-88
2022/07/16 07:13:37;;;;;;;28.33;26.15;;;;;;;28.71;87.82;101016.19;5014678;28;20142;-87
2022/07/16 07:16:05;;;;;;;27.60;25.38;;;;;;;28.66;88.64;101016.34;5016842;28;20060;-85
2022/07/16 07:18:33;;;;;;;27.90;25.58;;;;;;;28.62;90.42;101009.91;5016272;28;20041;-86
2022/07/16 07:21:00;;;;;;;28.98;26.75;;;;;;;28.88;87.52;101004.44;5023608;28;20046;-85
2022/07/16 07:23:27;;;;;;;30.00;27.85;;;;;;;28.88;80.57;101009.91;5024117;28;20059;-88
2022/07/16 07:25:54;;;;;;;30.02;27.50;;;;;;;29.06;88.39;101000.59;5021250;28;20065;-87
2022/07/16 07:28:21;;;;;;;30.17;28.00;;;;;;;28.92;82.02;100995.28;5018388;28;20141;-88
2022/07/16 07:30:50;;;;;;;30.02;27.58;;;;;;;29.11;83.38;100986.78;5019454;28;20117;-86
2022/07/16 07:33:17;;;;;;;28.23;25.92;;;;;;;29.08;81.64;100987.41;5026294;28;20064;-87
2022/07/16 07:35:44;;;;;;;28.38;26.17;;;;;;;29.34;80.74;100992.81;5021787;28;20113;-86
2022/07/16 07:38:11;;;;;;;29.70;27.50;;;;;;;29.22;80.63;100984.47;5017449;28;20112;-86
2022/07/16 07:40:38;;;;;;;29.92;27.63;;;;;;;29.15;76.67;100979.53;5019354;28;20042;-89
2022/07/16 07:43:05;;;;;;;28.77;26.38;;;;;;;29.08;76.38;100989.31;5018011;28;20172;-87
2022/07/16 07:45:32;;;;;;;30.73;28.50;;;;;;;29.30;78.08;100993.81;5025932;28;20065;-87
2022/07/16 07:48:01;;;;;;;29.27;27.05;;;;;;;29.31;73.56;100989.94;5018398;28;20053;-89
2022/07/16 07:50:27;;;;;;;30.67;27.83;;;;;;;29.51;73.82;100986.50;5015918;28;20046;-86
2022/07/16 07:52:54;;;;;;;27.58;25.27;;;;;;;29.36;75.94;100987.84;5018510;28;20445;-87
2022/07/16 07:55:21;;;;;;;26.23;23.95;;;;;;;29.46;76.88;100992.13;5027212;28;20056;-89
2022/07/16 07:57:48;;;;;;;26.75;24.45;;;;;;;29.77;76.98;100985.59;5023518;28;20049;-86
2022/07/16 08:00:15;;;;;;;27.30;25.02;;;;;;;29.45;76.43;100994.06;5027500;28;20375;-86
2022/07/16 08:02:46;;;;;;;27.55;25.35;;;;;;;29.99;74.58;100990.03;5017181;28;20115;-86
2022/07/16 08:05:15;;;;;;;28.05;25.77;;;;;;;30.26;72.62;100984.09;5025366;28;20056;-88
2022/07/16 08:07:42;;;;;;;28.98;26.42;;;;;;;30.17;70.89;100993.44;5019803;28;20046;-85
2022/07/16 08:10:10;;;;;;;28.27;26.00;;;;;;;30.38;73.22;100993.50;5018871;28;20050;-85
2022/07/16 08:12:37;;;;;;;27.92;25.92;;;;;;;30.30;71.02;100997.91;5020089;28;20061;-85
2022/07/16 08:15:05;;;;;;;26.60;24.45;;;;;;;30.33;71.31;100992.56;5021335;28;20401;-88
2022/07/16 08:17:32;;;;;;;27.00;24.75;;;;;;;30.00;69.48;100997.91;5015544;28;20045;-86
2022/07/16 08:19:59;;;;;;;32.40;30.05;;;;;;;30.41;71.27;100992.81;5015367;28;20145;-86
2022/07/16 08:22:27;;;;;;;27.25;25.08;;;;;;;30.47;73.01;100986.84;5014252;28;20046;-85
2022/07/16 08:27:40;;;;;;;28.48;26.42;;;;;;;31.03;66.23;100994.75;5017214;28;20449;-86
2022/07/16 08:30:08;;;;;;;27.13;25.13;;;;;;;30.95;71.90;100985.47;5022825;28;20045;-86
2022/07/16 08:32:36;;;;;;;26.60;24.48;;;;;;;31.10;72.78;100983.22;5030544;28;20053;-86
2022/07/16 08:35:03;;;;;;;26.73;24.75;;;;;;;30.95;67.77;100979.97;5018131;28;20502;-85
2022/07/16 08:37:35;;;;;;;27.75;25.55;;;;;;;31.24;71.29;100972.75;5024003;28;20050;-85
2022/07/16 08:40:04;;;;;;;28.83;26.73;;;;;;;31.03;69.05;100978.31;5024899;28;20060;-88
2022/07/16 08:42:32;;;;;;;27.92;25.15;;;;;;;30.62;71.39;100973.66;5020490;28;20046;-85
2022/07/16 08:45:02;;;;;;;28.35;26.15;;;;;;;31.07;65.52;100970.19;5023814;28;20046;-86
2022/07/16 08:47:31;;;;;;;27.20;25.25;;;;;;;31.13;63.48;100966.09;5019591;28;20056;-87
2022/07/16 08:50:00;;;;;;;27.00;24.85;;;;;;;31.18;64.91;100965.88;5017800;28;20046;-88
2022/07/16 08:52:28;;;;;;;28.50;26.30;;;;;;;31.43;63.72;100964.00;5019840;28;20470;-85
2022/07/16 08:54:58;;;;;;;28.42;25.98;;;;;;;31.09;64.41;100981.63;5034401;28;20049;-88
2022/07/16 08:57:26;;;;;;;29.15;26.88;;;;;;;31.65;63.38;100971.00;5018950;28;20532;-87
2022/07/16 08:59:53;;;;;;;28.42;26.02;;;;;;;31.44;60.96;100971.91;5017017;28;20061;-88
2022/07/16 09:02:20;;;;;;;29.17;26.98;;;;;;;31.27;61.43;100978.34;5019172;28;20132;-85
2022/07/16 09:04:48;;;;;;;29.98;27.25;;;;;;;31.44;62.13;100960.94;5020162;28;20064;-87
2022/07/16 09:07:15;;;;;;;28.50;26.10;;;;;;;31.79;59.47;100962.44;5018746;28;20049;-86
2022/07/16 09:09:44;;;;;;;28.95;26.95;;;;;;;31.81;59.21;100957.41;5023312;28;20088;-87
2022/07/16 09:12:32;;;;;;;28.50;26.30;;;;;;;31.75;59.41;100967.00;5026671;28;20059;-86
2022/07/16 09:15:00;;;;;;;28.75;26.20;;;;;;;32.02;63.23;100960.84;5017585;28;20054;-86
2022/07/16 09:17:27;;;;;;;27.92;25.65;;;;;;;31.77;59.06;100961.97;5018927;28;20368;-85
2022/07/16 09:19:54;;;;;;;27.08;24.95;;;;;;;32.10;59.20;100967.34;5018862;28;20057;-84
2022/07/16 09:22:21;;;;;;;25.42;23.40;;;;;;;32.33;57.63;100964.91;5026678;28;20076;-86
2022/07/16 09:24:51;;;;;;;26.55;23.98;;;;;;;32.32;60.08;100960.56;5018573;28;20085;-86
2022/07/16 09:27:25;;;;;;;25.75;23.52;;;;;;;32.49;60.80;100962.25;5017637;28;20065;-87
2022/07/16 09:29:58;;;;;;;25.60;23.30;;;;;;;32.76;58.31;100963.41;5018719;28;20136;-87
2022/07/16 09:32:29;;;;;;;26.50;24.30;;;;;;;32.70;55.23;100956.53;5019824;28;20149;-88
2022/07/16 09:35:04;;;;;;;27.75;25.55;;;;;;;31.77;54.85;100956.47;5025469;28;20486;-87
2022/07/16 09:37:46;;;;;;;26.95;24.48;;;;;;;32.35;57.41;100959.88;5021946;28;20124;-86
2022/07/16 09:40:14;;;;;;;27.25;24.85;;;;;;;32.14;58.08;100962.78;5024252;28;20073;-88
2022/07/16 09:42:45;;;;;;;27.85;25.40;;;;;;;31.94;64.57;100956.25;5019337;28;20088;-86
2022/07/16 09:45:21;;;;;;;26.83;24.77;;;;;;;32.76;58.93;100958.69;5027112;28;20470;-86
2022/07/16 09:47:48;;;;;;;25.67;23.77;;;;;;;32.78;54.98;100955.59;5024307;28;20424;-84
2022/07/16 09:50:15;;;;;;;27.23;25.00;;;;;;;32.26;52.87;100951.75;5017648;28;20111;-85
2022/07/16 09:52:42;;;;;;;28.25;25.80;;;;;;;32.02;58.50;100949.84;5017203;28;20074;-85
2022/07/16 09:55:10;;;;;;;28.80;26.63;;;;;;;33.19;56.75;100948.06;5021467;28;20052;-86
2022/07/16 09:57:37;;;;;;;27.58;25.33;;;;;;;32.56;53.29;100956.97;5021256;28;20471;-85
2022/07/16 10:00:08;;;;;;;29.48;27.08;;;;;;;32.19;53.13;100961.72;5023785;28;20045;-89
2022/07/16 10:02:35;;;;;;;27.65;25.55;;;;;;;32.46;51.71;100951.94;5017516;28;20149;-88
2022/07/16 10:05:02;;;;;;;28.75;26.10;;;;;;;32.26;55.03;100946.25;5018319;28;20057;-86
2022/07/16 10:07:29;;;;;;;29.20;26.85;;;;;;;32.84;57.11;100944.00;5021097;28;20049;-87
2022/07/16 10:09:57;;;;;;;28.77;26.20;;;;;;;33.20;53.93;100936.72;5025227;28;20049;-84
2022/07/16 10:12:24;;;;;;;28.25;25.60;;;;;;;33.87;51.64;100934.00;5021272;28;20125;-84
2022/07/16 10:14:54;;;;;;;28.10;25.80;;;;;;;34.04;50.34;100935.59;5018999;28;20429;-87
2022/07/16 10:17:24;;;;;;;28.40;26.10;;;;;;;34.01;53.20;100932.72;5017776;28;20056;-85
2022/07/16 10:19:57;;;;;;;28.10;25.90;;;;;;;33.84;50.82;100926.47;5017006;28;20049;-85
2022/07/16 10:22:30;;;;;;;29.30;27.05;;;;;;;33.65;50.93;100931.91;5021572;28;20379;-88
2022/07/16 10:24:58;;;;;;;28.02;25.95;;;;;;;32.16;52.20;100938.47;5027295;28;20409;-88
2022/07/16 10:27:30;;;;;;;29.58;27.10;;;;;;;32.70;49.46;100927.09;5016381;28;20060;-86
2022/07/16 10:30:18;;;;;;;29.25;26.85;;;;;;;32.73;58.57;100920.91;5015851;28;20054;-87
2022/07/16 10:33:16;;;;;;;31.48;28.60;;;;;;;33.99;50.44;100933.09;5017816;28;20104;-86
2022/07/16 10:35:45;;;;;;;28.20;25.90;;;;;;;33.25;50.21;100925.41;5016147;28;20050;-86
2022/07/16 10:38:15;;;;;;;28.70;26.13;;;;;;;32.43;49.35;100925.91;5017413;28;20120;-87
2022/07/16 10:40:43;;;;;;;29.42;26.73;;;;;;;33.41;48.86;100921.88;5021456;28;20058;-87
2022/07/16 10:43:15;;;;;;;29.75;27.02;;;;;;;33.53;54.95;100927.31;5017058;28;20045;-85
2022/07/16 10:45:55;;;;;;;28.23;25.65;;;;;;;33.71;46.41;100923.03;5020817;28;20438;-85
2022/07/16 10:48:25;;;;;;;29.88;27.67;;;;;;;33.67;50.60;100915.81;5021649;28;20192;-88
2022/07/16 10:51:12;;;;;;;32.10;29.73;;;;;;;32.91;51.27;100904.06;5016534;28;20083;-88
2022/07/16 10:54:30;;;;;;;32.10;29.70;;;;;;;33.21;48.34;100908.03;5020788;28;20037;-86
2022/07/16 10:57:02;;;;;;;26.35;24.35;;;;;;;33.79;50.69;100901.16;5024695;28;20119;-86
2022/07/16 10:59:30;;;;;;;28.07;26.00;;;;;;;34.16;49.15;100905.16;5016310;28;20474;-87
2022/07/16 11:01:59;;;;;;;29.42;27.08;;;;;;;33.19;50.82;100901.28;5017991;28;20072;-87
2022/07/16 11:04:32;;;;;;;30.05;27.65;;;;;;;33.09;50.07;100899.88;5015149;28;20133;-85
2022/07/16 11:07:00;;;;;;;29.25;26.95;;;;;;;33.06;51.83;100892.31;5021035;28;20042;-86
2022/07/16 11:09:29;;;;;;;28.15;25.75;;;;;;;32.89;47.25;100893.41;5030718;28;20108;-84
2022/07/16 11:11:57;;;;;;;31.10;28.77;;;;;;;33.14;46.11;100901.56;5012297;28;20403;-86
2022/07/16 11:14:30;;;;;;;29.00;26.50;;;;;;;33.05;47.88;100886.03;5016940;28;20128;-86
2022/07/16 11:16:58;;;;;;;28.00;25.58;;;;;;;34.84;45.94;100889.94;5014527;28;20042;-88